Hauptseite
METAR-TAF:

METAR-TAF

Flughäfen :

Jendouba, Tunesien

Breite: 36-29N, Länge: 008-48E, Höhe: 143 m

Beobachtung

Neuester Wetterbericht von vor 52 Minuten, um 22:00 UTC
Wind 2 kt aus West/Nordwest
Temperatur 11°C
Luftfeuchtigkeit 87%
Luftdruck 1020 hPa
Sichtweite: 8000 m

METAR: DTTN 162200Z 29002KT 8000 NSC 11/09 Q1020

Zeit: 23:52 (22:52 UTC)


TAF: fehlend

Wetterbeobachtungen und Prognosen von mehr als 4000 Flughäfen (METAR und TAF Bericht).

Die verfügbaren Stationen werden durch gelbe und rote Markierungen auf der Karte dargestellt.

Führen Sie die Maus auf sie, um den Namen der Station zu sehen.

Darauf klicken, um die Beobachtung von Wetterbeobachtungen und Prognosen zu sehen.

Um die Karte zu ändern : klicken Sie auf den grünen Tasten mit einem schwarzen Kreuz Zum Vergrößern, auf den grünen Button mit einem Gedankenstrich zu verkleinern, oder auf die grünen Pfeile für benachbarte Karten.


METAR-TAF: